Domov               UVHVVR             MKGP            O straneh              
ZDRAVSTVENO VARSTVO RASTLIN
  MREŽA AGROMET. POSTAJ
 ► PROGNOSTIČNA OBVESTILA
AGROMETEOROLOŠKI PODATKI -
ARSO
OBVLADOVANJE TVEGANJ ZARADI
NEUGODNIH VREMENSKIH RAZMER
  ► NARAVNE NESREČE
  ► SUŠA/MOČA
  ► NAMAKANJE
  ► ŽLED (gozdarstvo)
KARTOGRAFSKI PRIKAZI
SPLETNE POVEZAVE
PROJEKTI IN PUBLIKACIJE

AGROMETEOROLOŠKA MREŽA: VREMENSKE POSTAJE IN FENOLOŠKA OPAZOVANJA

Pregled podatkov za lokacijo Šentjernej APS, meteorološka postaja 49205

Pregled senzorjev na lokaciji

ID Ime Zadnja
vrednost
Datum
zadnje
spremembe
Tip
senzorja
3728 Temperatura 2 m ( °C) 22,81 °C 22.8.2017 18:00 50YA
3729 Relativna vlaga 2 m (% RH) 42,08 % RH 22.8.2017 18:00 50YA
3730 Omočenost lista (U) 0 U 22.8.2017 18:00 A730WET
3731 Sončno sevanje (W/m2) 186,83 W/m2 22.8.2017 18:00 Pyranometer SP-Lite
3733 Hitrost vetra (km/h) 6,16 km/h 22.8.2017 18:00 566.2S-176 (200km/h)
3734 Smer vetra (°) 127,88 ° 22.8.2017 18:00 566.2S-130
3735 Padavine 0.2 mm (mm) 0 mm 22.8.2017 18:00 Rain-O-Matic

Pregled podatkov zadnjih 24 ur

Zap.
št.
Datum in čas Šentjernej APS
Hitrost
vetra
Omočenost
lista
Padavine
0.2
mm
Relativna
vlaga
2
m
Smer
vetra
Sončno
sevanje
Temperatura
2
m
0 22.8.2017 17:00 6,16 0 0 42,08 127,88 186,83 22,81
1 22.8.2017 16:30 6,94 0 0 41,26 130,63 268,44 23,11
2 22.8.2017 16:00 6,02 0 0 40,32 168,04 333,26 23,07
3 22.8.2017 15:30 8,11 0 0 40,03 101,96 403,6 23,16
4 22.8.2017 15:00 7,23 0 0 39,15 132,44 486,27 23,07
5 22.8.2017 14:30 8,24 0 0 39,11 163,04 555,28 22,99
6 22.8.2017 14:00 11 0 0 39,95 133,34 611,31 22,77
7 22.8.2017 13:30 9,56 0 0 41,42 113,67 645,4 22,72
8 22.8.2017 13:00 10,7 0 0 45,16 119,2 684,89 22,31
9 22.8.2017 12:30 9,74 0 0 47,16 112,22 702,07 21,88
10 22.8.2017 12:00 11,79 0 0 46,28 71,2 720,01 21,48
11 22.8.2017 11:30 12,24 0 0 48,42 127,95 721,63 21,11
12 22.8.2017 11:00 9,98 0 0 50,72 108,58 710,73 20,68
13 22.8.2017 10:30 11,68 0 0 53,47 129,36 684,15 20,07
14 22.8.2017 10:00 4,97 0 0 59,15 106,88 647,87 19,41
15 22.8.2017 09:30 4,15 0 0 64,12 77,71 603,25 18,35
16 22.8.2017 09:00 2,78 0 0 70,61 87,94 545,33 17,18
17 22.8.2017 08:30 3,31 0 0 73,42 27,85 468,45 16,08
18 22.8.2017 08:00 2,54 0 0 80,24 1,77 377,39 14,82
19 22.8.2017 07:30 0,96 0 0 84,42 117,92 293,25 13,75
20 22.8.2017 07:00 0,07 10 0 85,72 69,96 212,65 12,45
21 22.8.2017 06:30 0,07 10 0 91,04 357,56 133,24 11,22
22 22.8.2017 06:00 1,15 10 0 94,07 233,25 60,91 9,78
23 22.8.2017 05:30 1,18 10 0 95,39 247,76 10,35 9,13
24 22.8.2017 05:00 3,66 10 0 92,82 341,3 0,79 9,66
25 22.8.2017 04:30 4,11 10 0 92,22 245,97 0,34 9,71
26 22.8.2017 04:00 2,53 10 0 90,26 232,85 0,37 10,05
27 22.8.2017 03:30 0,94 10 0 89,25 226,03 0,34 10,4
28 22.8.2017 03:00 3,63 10 0 89,34 241,85 0,34 10,36
29 22.8.2017 02:30 3,95 10 0 88,71 230,85 0,31 10,66
30 22.8.2017 02:00 2,98 10 0 86,62 252,29 0,34 11,01
31 22.8.2017 01:30 3,13 10 0 84,59 288,27 0,34 11,53
32 22.8.2017 01:00 2,49 8 0 83,49 254,34 0,34 11,65
33 22.8.2017 00:30 4,28 3 0 81,94 234,25 0,34 11,89
34 22.8.2017 00:00 4,88 6 0 83,77 230,7 11,66
35 21.8.2017 23:30 2,99 2 0 80,01 246,17 12,2
36 21.8.2017 23:00 4,73 1 0 77,18 244,85 12,62
37 21.8.2017 22:30 4,54 3 0 80,16 232,42 12,71
38 21.8.2017 22:00 4,48 1 0 76,07 226,99 13,45
39 21.8.2017 21:30 4,1 0 0 67,32 261,04 14,51
40 21.8.2017 21:00 4,75 0 0 67,28 260,02 14,94
41 21.8.2017 20:30 2,84 0 0 63,15 237,8 16,06
42 21.8.2017 20:00 4,8 0 0 64,91 224,93 16,3
43 21.8.2017 19:30 4,33 0 0 64,39 231,1 17,03
44 21.8.2017 19:00 4,89 0 0 55,72 186,5 7,39 19
© 2011 Ministrstvo za kmetijstvo, gozdarstvo in prehrano. Vse pravice pridržane.